Terminal Aerodrome Forecast
Issued by NWS

Current Version | Previous Version | Text Only | Print | Product List | Glossary Off
Versions: 1 2 3 4 5 6 7 8 9 10 11 12 13 14 15 16 17 18 19 20 21 22 23

000
FTUS41 KRLX 311700
TAFCKB
TAF
KCKB 311740Z 3118/0118 23008KT P6SM SCT040
     FM312300 VRB03KT P6SM SCT040
     FM010800 00000KT 6SM BR SCT040
     FM011300 00000KT P6SM BKN040
     FM011600 15004KT P6SM VCTS BKN040CB=

USA.gov is the U.S. government's official web portal to all federal, state and local government web resources and services.